Погода Корфадиана 2 недели

Колима, Мексика

21 февраля-05 марта
  • 21февраля
    Сегодня
    +16°
    +30°
    Ясно и безоблачно
    ВремяПогодаТемператураВлажностьДавлениеВетер, м/сВероятность осадков
    00:00Ясно и безоблачно+19°C64 %657 мм1.6 м/с2 %
    03:00Ясно и безоблачно+19°C56 %656 мм0.8 м/с2 %
    06:00Ясно и безоблачно+17°C55 %656 мм1.1 м/с2 %
    09:00Ясно и безоблачно+19°C48 %658 мм0.2 м/с2 %
    12:00Ясно и безоблачно+26°C34 %659 мм1.7 м/с2 %
    15:00Ясно и безоблачно+29°C36 %657 мм2.8 м/с2 %
    18:00Ясно и безоблачно+25°C55 %656 мм2.4 м/с2 %
    21:00Ясно и безоблачно+20°C69 %656 мм0.5 м/с2 %
  • 22февраля
    Четверг
    +18°
    +30°
    Ясно и безоблачно
    ВремяПогодаТемператураВлажностьДавлениеВетер, м/сВероятность осадков
    00:00Ясно и безоблачно+18°C63 %655 мм1.1 м/с2 %
    03:00Ясно и безоблачно+17°C68 %654 мм1.5 м/с2 %
    06:00Ясно и безоблачно+17°C67 %654 мм1.2 м/с2 %
    09:00Ясно и безоблачно+20°C54 %655 мм0.4 м/с2 %
    12:00Ясно и безоблачно+26°C34 %657 мм1.6 м/с2 %
    15:00Ясно и безоблачно+30°C32 %655 мм3.4 м/с2 %
    18:00Ясно и безоблачно+25°C58 %654 мм2.1 м/с2 %
    21:00Ясно и безоблачно+20°C70 %654 мм0.8 м/с2 %
  • 23февраля
    Пятница
    +17°
    +30°
    Практически безоблачно
    ВремяПогодаТемператураВлажностьДавлениеВетер, м/сВероятность осадков
    00:00Ясно и безоблачно+20°C54 %653 мм1.3 м/с2 %
    03:00Ясно и безоблачно+20°C55 %652 мм0.9 м/с2 %
    06:00Ясно и безоблачно+19°C58 %652 мм1.1 м/с2 %
    09:00Ясно и безоблачно+21°C44 %653 мм0.4 м/с2 %
    12:00Ясно и безоблачно+27°C25 %655 мм1.7 м/с2 %
    15:00Практически безоблачно+29°C33 %654 мм3.1 м/с2 %
    18:00Ясно и безоблачно+26°C67 %653 мм2.0 м/с2 %
    21:00Ясно и безоблачно+21°C80 %653 мм0.5 м/с2 %
  • 24февраля
    Суббота
    +17°
    +30°
    Облачно с прояснениями
    ВремяПогодаТемператураВлажностьДавлениеВетер, м/сВероятность осадков
    00:00Ясно и безоблачно+19°C64 %653 мм0.9 м/с2 %
    03:00Ясно и безоблачно+19°C43 %653 мм1.2 м/с2 %
    06:00Ясно и безоблачно+18°C45 %652 мм1.1 м/с2 %
    09:00Ясно и безоблачно+21°C41 %655 мм0.5 м/с2 %
    12:00Облачно с прояснениями+27°C41 %657 мм1.8 м/с2 %
    15:00Облачно с прояснениями+29°C42 %656 мм3.2 м/с2 %
    18:00Облачно с прояснениями+25°C70 %656 мм2.4 м/с2 %
    21:00Практически безоблачно+20°C82 %655 мм0.5 м/с2 %
  • 25февраля
    Воскресенье
    +15°
    +31°
    Ясно и безоблачно
    ВремяПогодаТемператураВлажностьДавлениеВетер, м/сВероятность осадков
    00:00Практически безоблачно+20°C63 %655 мм1.0 м/с2 %
    03:00Практически безоблачно+20°C57 %654 мм1.0 м/с2 %
    06:00Ясно и безоблачно+19°C55 %654 мм0.8 м/с2 %
    09:00Ясно и безоблачно+21°C48 %656 мм0.1 м/с2 %
    12:00Небольшая облачность+27°C42 %658 мм2.1 м/с2 %
    15:00Ясно и безоблачно+30°C46 %657 мм3.0 м/с4 %
    18:00Ясно и безоблачно+25°C72 %656 мм2.3 м/с2 %
    21:00Ясно и безоблачно+20°C87 %656 мм0.2 м/с2 %
Мы используем cookies
Соглашаюсь